Terminal Aerodrome Forecast
Issued by NWS

Home | Current Version | Previous Version | Text Only | Print | Product List | Glossary On
Versions: 1 2 3 4 5 6 7 8 9 10 11 12 13 14 15
152
FTAK31 PAJN 262339
TAFAKT
TAF
PAKT 262339Z 2700/2724 33008KT P6SM SCT060 BKN100
     FM270900 VRB05KT P6SM VCSH BKN060 OVC100
     FM271700 VRB05KT P6SM SCT060 OVC100
      AMD LTD TO CLD VIS AND WIND 2706/2715=

USA.gov is the U.S. government's official web portal to all federal, state and local government web resources and services.